createdAt,value
2023-01-25T03:20:47.945Z,89270.00
2023-01-25T03:21:47.915Z,89268.00
2023-01-25T03:22:47.878Z,89268.00
2023-01-25T03:23:47.898Z,89274.00
2023-01-25T03:24:47.800Z,89268.00
2023-01-25T03:25:47.757Z,89268.00
2023-01-25T03:26:47.725Z,89264.00
2023-01-25T03:27:47.692Z,89264.00
2023-01-25T03:28:47.659Z,89266.00
2023-01-25T03:29:47.639Z,89264.00
2023-01-25T03:30:47.596Z,89266.00
2023-01-25T03:31:47.662Z,89268.00
2023-01-25T03:32:47.515Z,89270.00
2023-01-25T03:33:47.482Z,89268.00
2023-01-25T03:34:47.440Z,89264.00
2023-01-25T03:35:47.459Z,89268.00
2023-01-25T03:36:47.382Z,89268.00
2023-01-25T03:37:47.328Z,89268.00
2023-01-25T03:38:47.291Z,89268.00
2023-01-25T03:39:47.271Z,89270.00
2023-01-25T03:40:47.237Z,89270.00
2023-01-25T03:41:47.191Z,89266.00
2023-01-25T03:42:47.151Z,89266.00
2023-01-25T03:43:47.127Z,89268.00
2023-01-25T03:44:47.077Z,89270.00
2023-01-25T03:45:47.063Z,89268.00
2023-01-25T03:46:47.052Z,89268.00
2023-01-25T03:47:46.997Z,89264.00
2023-01-25T03:48:46.981Z,89262.00
2023-01-25T03:49:46.918Z,89254.00
2023-01-25T03:50:46.878Z,89254.00
2023-01-25T03:51:46.869Z,89254.00
2023-01-25T03:52:46.810Z,89256.00
2023-01-25T03:53:46.783Z,89260.00
2023-01-25T03:54:46.762Z,89260.00
2023-01-25T03:55:46.717Z,89260.00
2023-01-25T03:56:46.708Z,89262.00
2023-01-25T03:57:46.653Z,89264.00
2023-01-25T03:58:46.617Z,89260.00
2023-01-25T03:59:46.584Z,89256.00
2023-01-25T04:00:46.559Z,89256.00
2023-01-25T04:01:46.505Z,89258.00
2023-01-25T04:02:46.487Z,89260.00
2023-01-25T04:03:46.453Z,89260.00
2023-01-25T04:04:46.425Z,89258.00
2023-01-25T04:05:46.374Z,89256.00
2023-01-25T04:06:46.373Z,89254.00
2023-01-25T04:07:46.308Z,89254.00
2023-01-25T04:08:46.278Z,89254.00
2023-01-25T04:09:46.245Z,89254.00
2023-01-25T04:10:46.212Z,89250.00
2023-01-25T04:11:46.182Z,89250.00
2023-01-25T04:12:46.131Z,89252.00
2023-01-25T04:13:46.112Z,89254.00
2023-01-25T04:14:46.073Z,89256.00
2023-01-25T04:15:46.028Z,89256.00
2023-01-25T04:16:46.040Z,89254.00
2023-01-25T04:17:45.969Z,89258.00
2023-01-25T04:18:45.951Z,89256.00
2023-01-25T04:19:45.918Z,89256.00
2023-01-25T04:20:45.885Z,89260.00
2023-01-25T04:21:45.855Z,89258.00
2023-01-25T04:22:45.824Z,89256.00
2023-01-25T04:23:45.789Z,89258.00
2023-01-25T04:24:45.739Z,89254.00
2023-01-25T04:25:45.696Z,89256.00
2023-01-25T04:26:45.663Z,89254.00
2023-01-25T04:27:45.637Z,89256.00
2023-01-25T04:28:45.594Z,89256.00
2023-01-25T04:29:45.570Z,89254.00
2023-01-25T04:30:45.544Z,89256.00
2023-01-25T04:31:45.540Z,89254.00
2023-01-25T04:32:45.605Z,89254.00
2023-01-25T04:33:45.443Z,89252.00
2023-01-25T04:34:45.416Z,89250.00
2023-01-25T04:35:45.398Z,89250.00
2023-01-25T04:36:45.372Z,89252.00
2023-01-25T04:37:45.343Z,89254.00
2023-01-25T04:38:45.315Z,89254.00
2023-01-25T04:39:45.303Z,89258.00
2023-01-25T04:40:45.293Z,89254.00
2023-01-25T04:41:45.242Z,89252.00
2023-01-25T04:42:45.217Z,89256.00
2023-01-25T04:43:45.174Z,89254.00
2023-01-25T04:44:45.149Z,89252.00
2023-01-25T04:45:45.248Z,89250.00
2023-01-25T04:46:45.111Z,89248.00
2023-01-25T04:47:45.072Z,89252.00
2023-01-25T04:48:45.057Z,89254.00
2023-01-25T07:41:38.108Z,89184.00
2023-01-25T07:42:38.017Z,89186.00
2023-01-25T07:43:37.996Z,89180.00
2023-01-25T07:44:37.914Z,89182.00
2023-01-25T07:45:37.855Z,89176.00
2023-01-25T07:46:37.800Z,89176.00
2023-01-25T07:47:38.051Z,89180.00
2023-01-25T07:49:37.638Z,89180.00
2023-01-25T07:50:37.594Z,89178.00
2023-01-25T07:51:37.536Z,89178.00
2023-01-25T07:52:37.449Z,89178.00
2023-01-25T07:53:37.387Z,89182.00
2023-01-25T07:54:37.343Z,89180.00
2023-01-25T07:55:37.301Z,89178.00
2023-01-25T07:56:37.193Z,89174.00
2023-01-25T07:57:37.150Z,89173.00
2023-01-25T07:58:37.093Z,89171.00
2023-01-25T07:59:37.089Z,89169.00
2023-01-25T08:00:37.032Z,89176.00
2023-01-25T08:01:37.221Z,89174.00
2023-01-25T08:02:36.888Z,89174.00
2023-01-25T08:03:36.845Z,89174.00
2023-01-25T08:04:36.830Z,89167.00
2023-01-25T08:05:37.834Z,89167.00
2023-01-25T08:06:36.838Z,89167.00
2023-01-25T08:07:36.782Z,89171.00
2023-01-25T08:08:36.753Z,89171.00
2023-01-25T08:09:36.711Z,89171.00
2023-01-25T08:10:36.651Z,89171.00
2023-01-25T08:11:36.629Z,89171.00
2023-01-25T08:12:36.562Z,89171.00
2023-01-25T08:13:36.511Z,89173.00
2023-01-25T08:14:36.472Z,89171.00
2023-01-25T08:15:36.420Z,89173.00
2023-01-25T08:16:36.473Z,89171.00
2023-01-25T08:17:36.330Z,89167.00
2023-01-25T08:18:36.886Z,89171.00
2023-01-25T08:19:36.455Z,89176.00
2023-01-25T08:20:36.202Z,89176.00
2023-01-25T08:21:36.151Z,89173.00
2023-01-25T08:22:36.131Z,89171.00
2023-01-25T08:23:36.095Z,89169.00
2023-01-25T08:24:36.105Z,89169.00
2023-01-25T08:25:35.993Z,89167.00
2023-01-25T08:26:35.976Z,89165.00
2023-01-25T08:27:35.906Z,89165.00
2023-01-25T08:28:35.894Z,89161.00
2023-01-25T08:29:35.824Z,89161.00
2023-01-25T08:30:36.033Z,89161.00
2023-01-25T08:31:35.834Z,89159.00
2023-01-25T08:32:37.166Z,89159.00
2023-01-25T08:33:35.695Z,89159.00
2023-01-25T08:34:35.682Z,89155.00
2023-01-25T08:35:35.574Z,89153.00
2023-01-25T08:36:35.504Z,89159.00
2023-01-25T08:37:35.481Z,89151.00
2023-01-25T08:38:35.513Z,89147.00
2023-01-25T08:39:35.396Z,89145.00
2023-01-25T08:40:38.249Z,89145.00
2023-01-25T08:41:35.320Z,89147.00
2023-01-25T08:42:35.277Z,89143.00
2023-01-25T08:43:35.242Z,89143.00
2023-01-25T08:44:35.193Z,89141.00
2023-01-25T08:45:35.161Z,89141.00
2023-01-25T08:46:35.124Z,89145.00
2023-01-25T08:47:35.081Z,89141.00
2023-01-25T08:48:35.032Z,89141.00
2023-01-25T11:53:27.180Z,88879.00
2023-01-25T11:54:27.088Z,88875.00
2023-01-25T11:55:27.039Z,88871.00
2023-01-25T11:56:26.947Z,88871.00
2023-01-25T11:57:26.954Z,88869.00
2023-01-25T11:58:26.848Z,88869.00
2023-01-25T11:59:26.790Z,88867.00
2023-01-25T12:00:27.481Z,88865.00
2023-01-25T12:01:26.705Z,88861.00
2023-01-25T12:02:26.681Z,88859.00
2023-01-25T12:03:26.620Z,88859.00
2023-01-25T12:04:26.678Z,88853.00
2023-01-25T12:05:26.499Z,88849.00
2023-01-25T12:06:26.469Z,88849.00
2023-01-25T12:07:26.399Z,88851.00
2023-01-25T12:08:26.400Z,88849.00
2023-01-25T12:09:26.301Z,88846.00
2023-01-25T12:10:26.251Z,88842.00
2023-01-25T12:11:26.274Z,88836.00
2023-01-25T12:12:26.167Z,88830.00
2023-01-25T12:13:26.138Z,88830.00
2023-01-25T12:14:26.096Z,88830.00
2023-01-25T12:15:26.001Z,88826.00
2023-01-25T12:16:26.045Z,88826.00
2023-01-25T12:17:25.902Z,88822.00
2023-01-25T12:18:25.928Z,88818.00
2023-01-25T12:19:25.798Z,88822.00
2023-01-25T12:20:25.751Z,88822.00
2023-01-25T12:21:31.315Z,88820.00
2023-01-25T12:22:26.674Z,88816.00
2023-01-25T12:23:25.581Z,88816.00
2023-01-25T12:24:25.592Z,88810.00
2023-01-25T12:25:25.475Z,88810.00
2023-01-25T12:26:25.438Z,88806.00
2023-01-25T12:27:26.124Z,88812.00
2023-01-25T12:28:25.340Z,88808.00
2023-01-25T12:29:25.265Z,88808.00
2023-01-25T12:30:25.219Z,88812.00
2023-01-25T12:31:25.231Z,88812.00
2023-01-25T12:32:25.145Z,88808.00
2023-01-25T12:33:25.073Z,88812.00
2023-01-25T12:34:25.027Z,88808.00
2023-01-25T14:30:19.856Z,88719.00
2023-01-25T16:18:15.498Z,88707.00
2023-01-25T16:19:15.469Z,88705.00
2023-01-25T16:20:15.431Z,88703.00
2023-01-25T16:21:15.401Z,88703.00
2023-01-25T16:22:15.370Z,88699.00
2023-01-25T16:23:15.337Z,88705.00
2023-01-25T16:24:15.350Z,88705.00
2023-01-25T16:25:15.277Z,88705.00
2023-01-25T16:26:15.240Z,88705.00
2023-01-25T16:27:15.206Z,88703.00
2023-01-25T16:28:15.174Z,88707.00
2023-01-25T16:29:15.166Z,88703.00
2023-01-25T16:30:15.133Z,88703.00
2023-01-25T16:31:30.833Z,88703.00
2023-01-25T16:32:16.105Z,88703.00
2023-01-25T16:33:15.050Z,88699.00
2023-01-25T20:25:07.713Z,88526.00
2023-01-25T20:26:07.415Z,88526.00
2023-01-25T20:27:07.386Z,88526.00
2023-01-25T20:28:07.354Z,88524.00
2023-01-25T20:29:07.360Z,88524.00
2023-01-25T20:30:07.308Z,88524.00
2023-01-25T20:31:08.269Z,88524.00
2023-01-25T20:32:07.352Z,88522.00
2023-01-25T20:33:07.191Z,88520.00
2023-01-25T20:34:07.154Z,88516.00
2023-01-25T20:35:07.126Z,88514.00
2023-01-25T20:36:07.097Z,88514.00
2023-01-25T20:37:07.068Z,88518.00
2023-01-25T20:38:07.043Z,88516.00
2023-01-25T20:39:07.018Z,88514.00
2023-01-25T20:40:06.997Z,88509.00
2023-01-25T20:41:06.947Z,88507.00
2023-01-25T20:42:06.930Z,88512.00
2023-01-25T20:43:06.885Z,88511.00
2023-01-25T20:44:06.853Z,88509.00
2023-01-25T20:45:06.847Z,88505.00
2023-01-25T20:46:06.800Z,88503.00
2023-01-25T20:47:06.786Z,88499.00
2023-01-25T20:48:06.738Z,88499.00
2023-01-25T20:49:06.712Z,88501.00
2023-01-25T20:50:06.703Z,88497.00
2023-01-25T20:51:06.644Z,88491.00
2023-01-25T20:52:06.611Z,88487.00
2023-01-25T20:53:06.589Z,88489.00
2023-01-25T20:54:06.554Z,88489.00
2023-01-25T20:55:06.539Z,88489.00
2023-01-25T20:56:06.498Z,88485.00
2023-01-25T20:57:06.461Z,88487.00
2023-01-25T20:58:06.427Z,88483.00
2023-01-25T20:59:06.385Z,88487.00
2023-01-25T21:00:06.363Z,88487.00
2023-01-25T21:01:06.357Z,88485.00
2023-01-25T21:02:06.401Z,88481.00
2023-01-25T21:03:06.259Z,88477.00
2023-01-25T21:04:06.273Z,88479.00
2023-01-25T21:05:06.197Z,88479.00
2023-01-25T21:06:06.171Z,88479.00
2023-01-25T21:07:06.122Z,88479.00
2023-01-25T21:08:06.090Z,88475.00
2023-01-25T21:09:06.052Z,88475.00
2023-01-25T21:10:06.026Z,88477.00
2023-01-25T21:11:05.991Z,88477.00
2023-01-25T21:12:06.673Z,88475.00
2023-01-25T21:13:05.931Z,88473.00
2023-01-25T21:14:05.904Z,88475.00
2023-01-25T21:15:05.878Z,88466.00
2023-01-25T21:16:05.879Z,88473.00
2023-01-25T21:17:05.810Z,88475.00
2023-01-25T21:18:05.780Z,88466.00
2023-01-25T21:19:05.748Z,88464.00
2023-01-25T21:20:05.753Z,88460.00
2023-01-25T21:21:05.690Z,88460.00
2023-01-25T21:22:05.745Z,88462.00
2023-01-25T21:23:05.631Z,88462.00
2023-01-25T21:24:05.666Z,88460.00
2023-01-25T21:25:05.578Z,88458.00
2023-01-25T21:26:05.556Z,88458.00
2023-01-25T21:27:05.524Z,88460.00
2023-01-25T21:28:05.492Z,88462.00
2023-01-25T21:29:05.470Z,88460.00
2023-01-25T21:30:05.462Z,88458.00
2023-01-25T21:31:05.445Z,88458.00
2023-01-25T21:32:05.360Z,88460.00
2023-01-25T21:33:05.392Z,88456.00
2023-01-25T21:34:05.313Z,88454.00
2023-01-25T21:35:05.273Z,88454.00
2023-01-25T21:36:05.247Z,88452.00
2023-01-25T21:37:05.234Z,88449.00
2023-01-25T21:38:05.202Z,88454.00
2023-01-25T21:39:05.178Z,88452.00
2023-01-25T21:40:05.145Z,88452.00
2023-01-25T21:41:05.099Z,88451.00
2023-01-25T21:42:05.078Z,88449.00
2023-01-25T21:43:05.048Z,88449.00
2023-01-25T21:44:05.007Z,88451.00
2023-01-25T21:51:05.203Z,88451.00
